createdAt,value
2023-04-01T00:01:27.279Z,89.00
2023-04-01T00:03:34.655Z,89.00
2023-04-01T00:05:37.710Z,88.70
2023-04-01T00:07:40.865Z,88.70
2023-04-01T00:09:43.629Z,88.90
2023-04-01T00:11:46.637Z,88.90
2023-04-01T00:13:49.823Z,89.10
2023-04-01T00:15:52.966Z,89.10
2023-04-01T00:17:56.288Z,89.10
2023-04-01T00:20:01.242Z,88.90
2023-04-01T00:22:03.994Z,89.00
2023-04-01T00:24:06.913Z,88.90
2023-04-01T00:26:09.854Z,89.10
2023-04-01T00:28:12.699Z,89.20
2023-04-01T00:30:16.367Z,89.30
2023-04-01T00:32:19.197Z,89.40
2023-04-01T00:34:22.134Z,89.20
2023-04-01T00:36:26.336Z,89.40
2023-04-01T00:38:29.081Z,89.50
2023-04-01T00:40:35.441Z,89.50
2023-04-01T00:42:38.359Z,89.40
2023-04-01T00:44:41.554Z,89.40
2023-04-01T00:46:44.491Z,89.40
2023-04-01T00:48:52.277Z,89.40
2023-04-01T00:50:59.188Z,89.40
2023-04-01T00:53:04.248Z,89.60
2023-04-01T00:55:08.736Z,89.50
2023-04-01T00:57:15.815Z,89.60
2023-04-01T00:59:25.040Z,89.50
2023-04-01T01:01:29.836Z,89.60
2023-04-01T01:03:32.656Z,89.60
2023-04-01T01:05:50.630Z,89.50
2023-04-01T01:08:01.390Z,89.60
2023-04-01T01:10:12.751Z,89.50
2023-04-01T01:12:19.574Z,89.80
2023-04-01T01:14:32.608Z,89.60
2023-04-01T01:16:41.313Z,89.70
2023-04-01T01:18:51.402Z,89.60
2023-04-01T01:21:23.885Z,89.70
2023-04-01T01:23:49.822Z,89.60
2023-04-01T01:26:03.467Z,89.60
2023-04-01T01:28:26.894Z,89.50
2023-04-01T01:30:41.250Z,89.50
2023-04-01T01:33:11.721Z,89.30
2023-04-01T01:35:24.673Z,89.50
2023-04-01T01:37:29.351Z,89.50
2023-04-01T01:39:35.952Z,89.50
2023-04-01T01:41:41.813Z,89.30
2023-04-01T01:43:49.624Z,89.40
2023-04-01T01:45:56.826Z,89.30
2023-04-01T01:48:02.411Z,89.40
2023-04-01T01:50:07.235Z,89.30
2023-04-01T01:52:11.412Z,89.30
2023-04-01T01:54:14.671Z,89.40
2023-04-01T01:56:20.087Z,89.30
2023-04-01T01:58:26.914Z,89.60
2023-04-01T02:00:30.967Z,89.70
2023-04-01T02:02:33.943Z,89.60
2023-04-01T02:04:40.258Z,89.50
2023-04-01T02:06:48.863Z,89.50
2023-04-01T02:08:56.510Z,89.80
2023-04-01T02:11:03.147Z,89.70
2023-04-01T02:13:11.686Z,89.80
2023-04-01T02:15:17.826Z,89.50
2023-04-01T02:17:22.713Z,89.50
2023-04-01T02:19:30.721Z,89.40
2023-04-01T02:21:34.214Z,89.40
2023-04-01T02:23:38.626Z,89.60
2023-04-01T02:25:45.471Z,89.70
2023-04-01T02:27:49.006Z,89.90
2023-04-01T02:29:52.227Z,89.80
2023-04-01T02:31:56.645Z,89.90
2023-04-01T02:34:00.252Z,89.90
2023-04-01T02:36:03.102Z,89.80
2023-04-01T02:38:07.267Z,90.00
2023-04-01T02:40:13.312Z,90.00
2023-04-01T02:42:17.682Z,90.00
2023-04-01T02:44:20.824Z,89.80
2023-04-01T02:46:23.577Z,89.80
2023-04-01T02:48:26.654Z,89.80
2023-04-01T02:50:29.380Z,89.90
2023-04-01T02:52:32.770Z,89.90
2023-04-01T02:54:35.590Z,89.90
2023-04-01T02:56:38.477Z,89.70
2023-04-01T02:58:42.601Z,89.90
2023-04-01T03:00:45.720Z,89.80
2023-04-01T03:02:48.660Z,89.60
2023-04-01T03:04:51.604Z,89.90
2023-04-01T03:06:54.735Z,89.90
2023-04-01T03:08:57.776Z,89.70
2023-04-01T03:11:00.738Z,89.60
2023-04-01T03:13:03.563Z,89.80
2023-04-01T03:15:10.922Z,89.80
2023-04-01T03:17:14.377Z,89.90
2023-04-01T03:19:17.155Z,90.00
2023-04-01T03:21:22.095Z,89.90
2023-04-01T03:23:25.265Z,89.70
2023-04-01T03:25:29.901Z,89.70
2023-04-01T03:27:32.804Z,89.80
2023-04-01T03:29:35.536Z,89.80
2023-04-01T03:31:39.717Z,89.80
2023-04-01T03:33:42.733Z,90.00
2023-04-01T03:35:45.702Z,90.00
2023-04-01T03:37:48.700Z,90.00
2023-04-01T03:39:51.669Z,90.00
2023-04-01T03:41:54.517Z,89.90
2023-04-01T03:43:57.249Z,89.80
2023-04-01T03:46:00.185Z,89.80
2023-04-01T03:48:04.433Z,89.80
2023-04-01T03:50:08.975Z,89.80
2023-04-01T03:52:12.694Z,89.70
2023-04-01T03:54:16.122Z,89.70
2023-04-01T03:56:18.925Z,89.70
2023-04-01T03:58:21.848Z,89.70
2023-04-01T04:00:24.795Z,89.80
2023-04-01T04:02:27.575Z,89.60
2023-04-01T04:04:32.029Z,89.80
2023-04-01T04:06:35.313Z,89.80
2023-04-01T04:08:38.143Z,89.80
2023-04-01T04:10:40.922Z,89.60
2023-04-01T04:12:43.711Z,89.70
2023-04-01T04:14:46.504Z,89.60
2023-04-01T04:16:49.288Z,89.80
2023-04-01T04:18:52.472Z,89.50
2023-04-01T04:20:56.672Z,89.70
2023-04-01T04:22:59.473Z,89.80
2023-04-01T04:25:02.260Z,89.70
2023-04-01T04:27:05.618Z,89.50
2023-04-01T04:29:08.365Z,89.40
2023-04-01T04:31:11.247Z,89.40
2023-04-01T04:33:14.125Z,89.50
2023-04-01T04:35:17.396Z,89.60
2023-04-01T04:37:21.444Z,89.60
2023-04-01T04:39:24.202Z,89.60
2023-04-01T04:41:27.049Z,89.80
2023-04-01T04:43:29.888Z,89.80
2023-04-01T04:45:32.948Z,89.60
2023-04-01T04:47:35.833Z,89.50
2023-04-01T04:49:38.700Z,89.70
2023-04-01T04:51:41.708Z,89.60
2023-04-01T04:53:46.591Z,89.70
2023-04-01T04:55:51.216Z,89.80
2023-04-01T04:57:54.020Z,89.80
2023-04-01T04:59:56.831Z,89.80
2023-04-01T05:01:59.727Z,90.00
2023-04-01T05:04:02.476Z,90.00
2023-04-01T05:06:06.084Z,90.00
2023-04-01T05:08:08.906Z,90.00
2023-04-01T05:10:13.190Z,90.10
2023-04-01T05:12:16.268Z,90.00
2023-04-01T05:14:19.132Z,90.00
2023-04-01T05:16:23.144Z,90.00
2023-04-01T05:18:26.103Z,90.00
2023-04-01T05:20:28.900Z,90.00
2023-04-01T05:22:31.721Z,90.00
2023-04-01T05:24:34.896Z,90.00
2023-04-01T05:26:39.364Z,90.00
2023-04-01T05:28:42.845Z,89.90
2023-04-01T05:30:46.064Z,90.00
2023-04-01T05:32:49.091Z,90.00
2023-04-01T05:34:52.583Z,90.00
2023-04-01T05:36:55.328Z,90.00
2023-04-01T05:38:58.251Z,90.00
2023-04-01T05:41:01.505Z,90.00
2023-04-01T05:43:05.855Z,89.90
2023-04-01T05:45:09.944Z,90.00
2023-04-01T05:47:12.805Z,89.80
2023-04-01T05:49:15.639Z,89.60
2023-04-01T05:51:18.466Z,89.40
2023-04-01T05:53:21.321Z,89.20
2023-04-01T05:55:24.333Z,89.60
2023-04-01T05:57:27.167Z,89.40
2023-04-01T05:59:32.228Z,89.00
2023-04-01T06:01:35.071Z,88.80
2023-04-01T06:03:38.780Z,88.40
2023-04-01T06:05:43.222Z,88.70
2023-04-01T06:07:46.090Z,88.70
2023-04-01T06:09:49.570Z,88.60
2023-04-01T06:12:21.397Z,88.50
2023-04-01T06:14:35.756Z,88.30
2023-04-01T06:16:51.404Z,88.50
2023-04-01T06:19:19.014Z,88.20
2023-04-01T06:21:52.525Z,87.90
2023-04-01T06:24:06.437Z,88.20
2023-04-01T06:26:20.930Z,88.20
2023-04-01T06:28:56.719Z,87.90
2023-04-01T06:31:07.679Z,87.80
2023-04-01T06:33:35.195Z,87.80
2023-04-01T06:35:53.365Z,87.80
2023-04-01T06:38:11.496Z,87.70
2023-04-01T06:40:37.237Z,87.80
2023-04-01T06:43:03.321Z,87.80
2023-04-01T06:45:18.532Z,87.70
2023-04-01T06:47:32.738Z,87.60
2023-04-01T06:49:46.685Z,87.80
2023-04-01T06:51:55.653Z,87.80
2023-04-01T06:54:05.323Z,87.60
2023-04-01T06:56:11.079Z,87.50
2023-04-01T06:58:22.527Z,86.90
2023-04-01T07:00:30.987Z,86.90
2023-04-01T07:02:41.969Z,87.30
2023-04-01T07:04:48.935Z,87.30
2023-04-01T07:06:56.154Z,86.80
2023-04-01T07:09:05.460Z,86.80
2023-04-01T07:11:12.500Z,86.80
2023-04-01T07:13:20.490Z,87.20
2023-04-01T07:15:27.284Z,87.10
2023-04-01T07:17:33.328Z,87.00
2023-04-01T07:19:46.376Z,87.30
2023-04-01T07:21:52.148Z,86.50
2023-04-01T07:23:58.909Z,86.50
2023-04-01T07:26:05.913Z,87.00
2023-04-01T07:28:15.423Z,86.90
2023-04-01T07:30:21.741Z,86.40
2023-04-01T07:32:36.178Z,86.20
2023-04-01T07:34:51.879Z,86.60
2023-04-01T07:37:02.412Z,87.10
2023-04-01T07:39:18.495Z,86.50
2023-04-01T07:41:31.535Z,86.40
2023-04-01T07:43:55.062Z,86.50
2023-04-01T07:46:09.584Z,86.60
2023-04-01T07:48:23.912Z,86.60
2023-04-01T07:50:33.294Z,86.30
2023-04-01T07:52:46.329Z,85.60
2023-04-01T07:54:54.928Z,85.60
2023-04-01T07:57:04.398Z,85.70
2023-04-01T07:59:15.105Z,85.70
2023-04-01T08:01:26.419Z,86.00
2023-04-01T08:03:37.901Z,85.90
2023-04-01T08:05:54.032Z,85.70
2023-04-01T08:08:09.711Z,85.30
2023-04-01T08:10:20.460Z,85.70
2023-04-01T08:12:37.313Z,85.60
2023-04-01T08:14:49.780Z,84.80
2023-04-01T08:17:02.644Z,84.00
2023-04-01T08:19:15.850Z,84.80
2023-04-01T08:21:23.405Z,84.70
2023-04-01T08:23:29.214Z,85.00
2023-04-01T08:25:35.322Z,85.20
2023-04-01T08:27:43.357Z,85.10
2023-04-01T08:29:52.410Z,85.50
2023-04-01T08:32:00.207Z,84.90
2023-04-01T08:34:06.936Z,84.60
2023-04-01T08:36:14.487Z,84.70
2023-04-01T08:38:25.675Z,84.70
2023-04-01T08:40:48.842Z,84.80
2023-04-01T08:43:07.306Z,85.20
2023-04-01T08:45:22.450Z,85.40
2023-04-01T08:47:44.436Z,85.10
2023-04-01T08:50:20.627Z,85.10
2023-04-01T08:52:36.692Z,85.60
2023-04-01T08:54:58.225Z,85.10
2023-04-01T08:57:06.332Z,84.60
2023-04-01T08:59:34.391Z,84.60
2023-04-01T09:02:02.835Z,84.80
2023-04-01T09:04:28.354Z,85.00
2023-04-01T09:06:39.599Z,85.00
2023-04-01T09:09:02.301Z,85.00
2023-04-01T09:11:14.493Z,85.00
2023-04-01T09:13:41.742Z,84.90
2023-04-01T09:15:59.509Z,85.10
2023-04-01T09:18:21.848Z,84.80
2023-04-01T09:20:42.606Z,85.10
2023-04-01T09:22:55.174Z,84.60
2023-04-01T09:25:25.245Z,85.00
2023-04-01T09:27:36.804Z,85.10
2023-04-01T09:30:01.007Z,85.10
2023-04-01T09:32:29.460Z,85.10
2023-04-01T09:34:56.571Z,85.20
2023-04-01T09:37:12.925Z,84.90
2023-04-01T09:39:36.396Z,85.10
2023-04-01T09:41:48.252Z,85.00
2023-04-01T09:44:03.969Z,84.60
2023-04-01T09:46:21.125Z,84.80
2023-04-01T09:48:44.525Z,84.90
2023-04-01T09:50:56.711Z,84.90
2023-04-01T09:53:16.340Z,84.80
2023-04-01T09:55:50.920Z,84.80
2023-04-01T09:58:18.597Z,84.60
2023-04-01T10:00:41.775Z,85.10
2023-04-01T10:03:30.018Z,85.30
2023-04-01T10:06:18.414Z,85.10
2023-04-01T10:08:54.025Z,84.60
2023-04-01T10:11:15.163Z,84.90
2023-04-01T10:13:40.632Z,84.40
2023-04-01T10:16:07.875Z,84.70
2023-04-01T10:18:54.328Z,84.90
2023-04-01T10:21:40.150Z,84.80
2023-04-01T10:24:04.371Z,84.20
2023-04-01T10:26:48.982Z,84.10
2023-04-01T10:29:17.906Z,84.10
2023-04-01T10:31:49.755Z,83.60
2023-04-01T10:34:25.893Z,83.60
2023-04-01T10:36:45.187Z,84.00
2023-04-01T10:39:14.377Z,84.10
2023-04-01T10:41:49.469Z,83.90
2023-04-01T10:44:19.231Z,83.30
2023-04-01T10:46:53.740Z,83.30
2023-04-01T10:49:24.485Z,83.30
2023-04-01T10:51:53.711Z,83.30
2023-04-01T10:54:22.519Z,83.10
2023-04-01T10:56:47.622Z,83.30
2023-04-01T10:59:22.608Z,83.00
2023-04-01T11:01:52.603Z,83.20
2023-04-01T11:04:40.904Z,83.00
2023-04-01T11:07:26.538Z,82.70
2023-04-01T11:10:03.484Z,83.20
2023-04-01T11:12:23.332Z,83.00
2023-04-01T11:15:05.351Z,83.30
2023-04-01T11:17:46.206Z,83.60
2023-04-01T11:20:09.486Z,84.10
2023-04-01T11:22:31.713Z,83.70
2023-04-01T11:25:07.740Z,84.00
2023-04-01T11:27:22.375Z,83.70
2023-04-01T11:29:59.339Z,84.40
2023-04-01T11:32:15.287Z,83.70
2023-04-01T11:34:41.948Z,83.90
2023-04-01T11:36:57.836Z,83.90
2023-04-01T11:39:13.771Z,84.10
2023-04-01T11:41:28.223Z,84.00
2023-04-01T11:43:38.504Z,84.00
2023-04-01T11:45:47.743Z,84.00
2023-04-01T11:48:09.437Z,84.10
2023-04-01T11:50:22.186Z,84.00
2023-04-01T11:52:48.352Z,84.00
2023-04-01T11:55:07.964Z,84.10
2023-04-01T11:57:30.529Z,84.10
2023-04-01T11:59:49.868Z,84.10
2023-04-01T12:02:01.734Z,84.10
2023-04-01T12:04:33.965Z,84.00
2023-04-01T12:06:46.131Z,84.20
2023-04-01T12:08:58.250Z,84.60
2023-04-01T12:11:07.119Z,84.40
2023-04-01T12:13:20.531Z,83.80
2023-04-01T12:15:31.556Z,83.80
2023-04-01T12:17:45.408Z,84.20
2023-04-01T12:19:53.588Z,84.00
2023-04-01T12:22:14.325Z,84.00
2023-04-01T12:24:41.644Z,83.80
2023-04-01T12:27:01.737Z,83.50
2023-04-01T12:29:23.580Z,83.60
2023-04-01T12:31:36.138Z,83.60
2023-04-01T12:33:50.257Z,83.80
2023-04-01T12:36:01.427Z,83.80
2023-04-01T12:38:24.294Z,83.90
2023-04-01T12:40:40.905Z,84.20
2023-04-01T12:43:00.642Z,84.20
2023-04-01T12:45:17.242Z,84.20
2023-04-01T12:47:53.745Z,84.80
2023-04-01T12:50:16.809Z,85.40
2023-04-01T12:52:28.199Z,85.20
2023-04-01T12:55:20.184Z,85.40
2023-04-01T12:57:42.935Z,85.30
2023-04-01T13:00:04.135Z,85.50
2023-04-01T13:02:15.860Z,85.30
2023-04-01T13:04:55.137Z,85.10
2023-04-01T13:07:17.746Z,85.10
2023-04-01T13:09:38.158Z,84.80
2023-04-01T13:11:56.405Z,85.00
2023-04-01T13:14:34.297Z,84.90
2023-04-01T13:16:41.753Z,84.80
2023-04-01T13:18:58.454Z,84.50
2023-04-01T13:21:12.097Z,84.50
2023-04-01T13:23:30.283Z,84.60
2023-04-01T13:25:41.130Z,84.50
2023-04-01T13:27:46.968Z,84.30
2023-04-01T13:30:04.258Z,84.20
2023-04-01T13:32:17.716Z,84.50
2023-04-01T13:34:36.207Z,84.50
2023-04-01T13:36:50.188Z,84.40
2023-04-01T13:39:15.378Z,84.50
2023-04-01T13:41:27.196Z,84.80
2023-04-01T13:43:36.889Z,84.70
2023-04-01T13:45:56.929Z,84.50
2023-04-01T13:48:27.673Z,84.50
2023-04-01T13:50:48.185Z,84.20
2023-04-01T13:53:17.678Z,84.40
2023-04-01T13:55:33.446Z,84.50
2023-04-01T13:57:55.783Z,84.00
2023-04-01T14:00:22.711Z,83.20
2023-04-01T14:02:55.737Z,83.30
2023-04-01T14:05:15.463Z,83.60
2023-04-01T14:07:28.445Z,84.10
2023-04-01T14:09:53.564Z,84.30
2023-04-01T14:12:03.320Z,84.50
2023-04-01T14:14:18.581Z,83.90
2023-04-01T14:17:05.786Z,84.50
2023-04-01T14:19:26.464Z,84.70
2023-04-01T14:21:37.933Z,84.90
2023-04-01T14:23:58.811Z,84.90
2023-04-01T14:26:16.272Z,84.90
2023-04-01T14:28:30.560Z,84.60
2023-04-01T14:30:43.179Z,84.80
2023-04-01T14:32:54.838Z,84.70
2023-04-01T14:35:15.733Z,84.80
2023-04-01T14:37:34.217Z,84.80
2023-04-01T14:39:52.646Z,84.90
2023-04-01T14:42:22.017Z,85.10
2023-04-01T14:44:38.865Z,85.00
2023-04-01T14:47:05.180Z,84.90
2023-04-01T14:49:20.404Z,85.10
2023-04-01T14:51:32.777Z,85.30
2023-04-01T14:53:39.893Z,85.40
2023-04-01T14:55:51.687Z,85.70
2023-04-01T14:58:06.462Z,85.80
2023-04-01T15:00:16.746Z,85.60
2023-04-01T15:02:47.496Z,85.40
2023-04-01T15:04:59.671Z,85.60
2023-04-01T15:07:32.325Z,86.00
2023-04-01T15:09:45.365Z,85.80
2023-04-01T15:11:59.458Z,85.70
2023-04-01T15:14:39.494Z,85.30
2023-04-01T15:16:51.754Z,86.20
2023-04-01T15:19:05.802Z,86.40
2023-04-01T15:21:43.309Z,86.70
2023-04-01T15:23:58.206Z,86.80
2023-04-01T15:26:15.405Z,86.80
2023-04-01T15:28:28.439Z,86.60
2023-04-01T15:30:39.642Z,87.00
2023-04-01T15:32:57.614Z,87.10
2023-04-01T15:35:12.169Z,87.50
2023-04-01T15:37:22.852Z,87.40
2023-04-01T15:39:39.786Z,87.30
2023-04-01T15:41:51.957Z,87.30
2023-04-01T15:43:54.903Z,87.30
2023-04-01T15:46:11.503Z,87.40
2023-04-01T15:48:33.522Z,87.40
2023-04-01T15:50:54.960Z,87.50
2023-04-01T15:53:10.103Z,87.60
2023-04-01T15:55:22.962Z,87.80
2023-04-01T15:57:34.398Z,87.70
2023-04-01T16:00:06.631Z,87.50
2023-04-01T16:02:17.599Z,87.40
2023-04-01T16:04:48.545Z,87.20
2023-04-01T16:07:04.595Z,87.30
2023-04-01T16:09:22.713Z,87.30
2023-04-01T16:11:34.605Z,87.10
2023-04-01T16:13:48.417Z,87.40
2023-04-01T16:15:58.307Z,87.50
2023-04-01T16:18:25.822Z,87.10
2023-04-01T16:20:45.043Z,87.50
2023-04-01T16:22:56.264Z,87.40
2023-04-01T16:25:19.320Z,87.60
2023-04-01T16:27:31.543Z,87.70
2023-04-01T16:29:40.278Z,87.60
2023-04-01T16:31:48.268Z,87.60
2023-04-01T16:33:57.400Z,87.70
2023-04-01T16:36:12.284Z,88.00
2023-04-01T16:38:21.484Z,88.10
2023-04-01T16:40:38.666Z,88.20
2023-04-01T16:42:49.207Z,88.20
2023-04-01T16:44:57.881Z,88.20
2023-04-01T16:47:08.162Z,88.30
2023-04-01T16:49:27.533Z,88.40
2023-04-01T16:51:43.905Z,88.80
2023-04-01T16:53:51.577Z,88.70
2023-04-01T16:56:01.707Z,88.40
2023-04-01T16:58:07.913Z,89.20
2023-04-01T17:00:20.704Z,89.70
2023-04-01T17:02:28.444Z,89.60
2023-04-01T17:04:38.023Z,89.20
2023-04-01T17:06:46.350Z,89.10
2023-04-01T17:09:03.980Z,89.20
2023-04-01T17:11:14.858Z,89.20
2023-04-01T17:13:31.484Z,89.00
2023-04-01T17:15:43.446Z,89.20
2023-04-01T17:17:53.805Z,89.30
2023-04-01T17:20:27.856Z,89.40
2023-04-01T17:22:36.197Z,89.60
2023-04-01T17:24:51.218Z,89.30
2023-04-01T17:27:04.074Z,89.40
2023-04-01T17:29:18.030Z,89.10
2023-04-01T17:31:35.718Z,89.30
2023-04-01T17:33:59.369Z,89.30
2023-04-01T17:36:08.685Z,89.40
2023-04-01T17:38:22.572Z,89.50
2023-04-01T17:40:46.389Z,89.50
2023-04-01T17:42:56.405Z,89.70
2023-04-01T17:45:06.916Z,89.40
2023-04-01T17:47:31.136Z,89.40
2023-04-01T17:49:39.516Z,89.50
2023-04-01T17:51:48.457Z,89.50
2023-04-01T17:53:58.205Z,89.40
2023-04-01T17:56:16.297Z,89.80
2023-04-01T17:58:23.579Z,90.00
2023-04-01T18:00:50.681Z,90.10
2023-04-01T18:03:09.038Z,90.10
2023-04-01T18:05:38.213Z,90.10
2023-04-01T18:07:59.956Z,90.00
2023-04-01T18:10:22.717Z,90.00
2023-04-01T18:12:38.300Z,90.00
2023-04-01T18:14:59.620Z,90.00
2023-04-01T18:17:33.555Z,90.00
2023-04-01T18:19:49.955Z,89.90
2023-04-01T18:21:57.432Z,89.60
2023-04-01T18:24:04.717Z,89.70
2023-04-01T18:26:13.748Z,89.90
2023-04-01T18:28:28.602Z,90.00
2023-04-01T18:30:34.825Z,90.00
2023-04-01T18:32:48.173Z,90.00
2023-04-01T18:35:00.304Z,90.00
2023-04-01T18:37:19.103Z,90.00
2023-04-01T18:39:32.647Z,90.10
2023-04-01T18:41:42.966Z,90.10
2023-04-01T18:44:01.447Z,90.10
2023-04-01T18:46:10.493Z,90.10
2023-04-01T18:48:44.403Z,90.10
2023-04-01T18:50:54.854Z,90.10
2023-04-01T18:53:01.787Z,90.00
2023-04-01T18:55:31.827Z,90.10
2023-04-01T18:57:42.920Z,90.20
2023-04-01T18:59:52.904Z,90.10
2023-04-01T19:02:04.769Z,90.00
2023-04-01T19:04:20.735Z,90.20
2023-04-01T19:06:30.207Z,90.10
2023-04-01T19:08:35.023Z,90.10
2023-04-01T19:10:48.471Z,90.10
2023-04-01T19:13:05.248Z,90.10
2023-04-01T19:15:28.203Z,90.10
2023-04-01T19:17:43.452Z,90.20
2023-04-01T19:19:57.637Z,90.10
2023-04-01T19:22:04.901Z,90.10
2023-04-01T19:24:26.920Z,90.10
2023-04-01T19:26:34.206Z,90.10
2023-04-01T19:28:49.704Z,90.10
2023-04-01T19:30:59.039Z,90.10
2023-04-01T19:33:14.887Z,90.10
2023-04-01T19:35:31.015Z,90.20
2023-04-01T19:37:41.460Z,90.20
2023-04-01T19:39:55.829Z,90.30
2023-04-01T19:42:07.020Z,90.40
2023-04-01T19:44:28.038Z,90.30
2023-04-01T19:46:35.973Z,90.30
2023-04-01T19:48:50.739Z,90.40
2023-04-01T19:50:59.776Z,90.30
2023-04-01T19:53:12.913Z,90.40
2023-04-01T19:55:32.776Z,90.40
2023-04-01T19:57:46.907Z,90.40
2023-04-01T19:59:55.369Z,90.40
2023-04-01T20:02:03.615Z,90.50
2023-04-01T20:04:13.602Z,90.40
2023-04-01T20:06:30.510Z,90.50
2023-04-01T20:08:38.963Z,90.50
2023-04-01T20:10:48.392Z,90.40
2023-04-01T20:13:01.158Z,90.40
2023-04-01T20:15:08.951Z,90.20
2023-04-01T20:17:20.954Z,90.30
2023-04-01T20:19:30.541Z,90.40
2023-04-01T20:21:38.512Z,90.40
2023-04-01T20:23:46.103Z,90.50
2023-04-01T20:25:54.611Z,90.60
2023-04-01T20:28:01.236Z,90.50
2023-04-01T20:30:41.690Z,90.60
2023-04-01T20:32:59.499Z,90.50
2023-04-01T20:35:43.633Z,90.50
2023-04-01T20:37:55.739Z,90.50
2023-04-01T20:40:27.845Z,90.60
2023-04-01T20:42:48.252Z,90.50
2023-04-01T20:45:03.104Z,90.50
2023-04-01T20:47:19.128Z,90.30
2023-04-01T20:49:41.062Z,90.10
2023-04-01T20:51:49.914Z,90.30
2023-04-01T20:54:07.867Z,90.40
2023-04-01T20:56:40.035Z,90.20
2023-04-01T20:58:53.702Z,90.40
2023-04-01T21:01:06.658Z,90.30
2023-04-01T21:03:20.728Z,90.30
2023-04-01T21:05:48.741Z,90.20
2023-04-01T21:07:56.563Z,90.00
2023-04-01T21:10:29.135Z,89.80
2023-04-01T21:12:44.442Z,89.80
2023-04-01T21:14:59.636Z,89.80
2023-04-01T21:17:10.546Z,89.60
2023-04-01T21:19:27.486Z,89.90
2023-04-01T21:21:54.673Z,89.60
2023-04-01T21:24:28.240Z,89.40
2023-04-01T21:26:48.840Z,89.50
2023-04-01T21:29:20.938Z,89.70
2023-04-01T21:31:38.996Z,89.90
2023-04-01T21:33:56.120Z,89.70
2023-04-01T21:36:03.843Z,89.70
2023-04-01T21:38:22.506Z,89.70
2023-04-01T21:40:43.655Z,89.50
2023-04-01T21:42:56.404Z,89.70
2023-04-01T21:45:22.096Z,89.80
2023-04-01T21:48:08.465Z,89.80
2023-04-01T21:50:41.976Z,89.30
2023-04-01T21:53:27.373Z,89.10
2023-04-01T21:56:07.478Z,88.80
2023-04-01T21:58:47.838Z,88.80
2023-04-01T22:01:00.113Z,89.00
2023-04-01T22:03:33.889Z,88.90
2023-04-01T22:05:43.102Z,88.70
2023-04-01T22:07:51.794Z,88.60
2023-04-01T22:10:02.800Z,88.80
2023-04-01T22:12:14.376Z,88.90
2023-04-01T22:14:24.728Z,88.60
2023-04-01T22:16:37.428Z,88.80
2023-04-01T22:18:47.185Z,88.80
2023-04-01T22:20:54.769Z,88.70
2023-04-01T22:23:11.538Z,89.30
2023-04-01T22:25:20.704Z,88.50
2023-04-01T22:27:31.711Z,88.80
2023-04-01T22:29:42.775Z,88.90
2023-04-01T22:31:51.368Z,88.70
2023-04-01T22:34:02.308Z,88.70
2023-04-01T22:36:13.889Z,88.70
2023-04-01T22:38:29.684Z,89.00
2023-04-01T22:40:41.308Z,88.70
2023-04-01T22:42:46.908Z,88.60
2023-04-01T22:45:04.572Z,88.80
2023-04-01T22:47:11.189Z,88.60
2023-04-01T22:49:23.393Z,88.90
2023-04-01T22:51:33.148Z,88.80
2023-04-01T22:53:50.540Z,88.60
2023-04-01T22:55:55.425Z,88.30
2023-04-01T22:58:02.447Z,88.70
2023-04-01T23:00:16.084Z,88.70
2023-04-01T23:02:25.942Z,88.30
2023-04-01T23:04:34.585Z,88.30
2023-04-01T23:06:43.849Z,88.20
2023-04-01T23:09:07.178Z,88.30
2023-04-01T23:11:13.771Z,88.30
2023-04-01T23:13:21.232Z,88.00
2023-04-01T23:15:25.928Z,88.10
2023-04-01T23:17:51.768Z,88.20
2023-04-01T23:20:00.430Z,87.70
2023-04-01T23:22:11.032Z,88.10
2023-04-01T23:24:21.411Z,88.10
2023-04-01T23:26:32.355Z,88.00
2023-04-01T23:28:50.016Z,87.90
2023-04-01T23:30:54.887Z,87.60
2023-04-01T23:33:11.166Z,87.60
2023-04-01T23:35:18.365Z,87.10
2023-04-01T23:37:22.886Z,87.10
2023-04-01T23:39:30.210Z,87.20
2023-04-01T23:41:34.663Z,86.70
2023-04-01T23:43:41.211Z,86.90
2023-04-01T23:45:44.652Z,86.70
2023-04-01T23:47:51.631Z,87.00
2023-04-01T23:49:57.577Z,87.60
2023-04-01T23:52:01.865Z,87.10
2023-04-01T23:54:12.622Z,87.40
2023-04-01T23:56:18.643Z,86.60
2023-04-01T23:58:27.266Z,87.10
